Time;durP1;ratioP1;P1;durP2;ratioP2;P2;SDS_P1;SDS_P2;PMS_P1;PMS_P2;Temp;Humidity;BMP_temperature;BMP_pressure;BME280_temperature;BME280_humidity;BME280_pressure;Samples;Min_cycle;Max_cycle;Signal;HPM_P1;HPM_P2
2022/09/16 00:00:29;;;;;;;4.97;2.00;;;;;;;18.23;100.00;98113.94;1678241;85;20980;-72
2022/09/16 00:02:56;;;;;;;2.50;2.30;;;;;;;18.23;100.00;98116.72;1678153;84;21016;-73
2022/09/16 00:05:25;;;;;;;2.85;2.42;;;;;;;18.24;100.00;98121.09;1678219;85;21001;-69
2022/09/16 00:07:53;;;;;;;2.62;2.15;;;;;;;18.23;100.00;98118.12;1678313;85;21433;-74
2022/09/16 00:10:20;;;;;;;3.52;2.33;;;;;;;18.20;100.00;98125.87;1678315;84;21953;-73
2022/09/16 00:12:48;;;;;;;2.95;2.45;;;;;;;18.19;100.00;98122.91;1678160;85;20999;-71
2022/09/16 00:15:15;;;;;;;3.90;2.42;;;;;;;18.21;100.00;98113.54;1678163;85;21003;-71
2022/09/16 00:17:44;;;;;;;3.27;2.60;;;;;;;18.20;100.00;98109.77;1678100;85;20945;-68
2022/09/16 00:20:10;;;;;;;2.72;2.50;;;;;;;18.19;100.00;98103.98;1678209;85;20993;-69
2022/09/16 00:22:37;;;;;;;3.22;2.87;;;;;;;18.20;100.00;98100.79;1678134;85;21160;-66
2022/09/16 00:25:07;;;;;;;5.03;3.55;;;;;;;18.19;100.00;98098.41;1678193;85;20921;-68
2022/09/16 00:27:34;;;;;;;6.83;3.05;;;;;;;18.16;100.00;98092.27;1678461;85;20953;-66
2022/09/16 00:30:00;;;;;;;3.42;3.12;;;;;;;18.13;100.00;98102.24;1678134;85;21041;-71
2022/09/16 00:32:27;;;;;;;5.15;2.85;;;;;;;18.12;100.00;98110.36;1678268;85;21060;-72
2022/09/16 00:34:53;;;;;;;3.27;2.83;;;;;;;18.11;100.00;98114.36;1678300;85;21927;-70
2022/09/16 00:37:20;;;;;;;7.17;3.40;;;;;;;18.11;100.00;98112.38;1678293;85;20970;-72
2022/09/16 00:39:48;;;;;;;3.95;3.15;;;;;;;18.12;100.00;98113.14;1678284;84;21481;-69
2022/09/16 00:42:17;;;;;;;6.10;3.25;;;;;;;18.13;100.00;98112.00;1678078;84;21031;-73
2022/09/16 00:45:02;;;;;;;8.30;2.80;;;;;;;18.15;100.00;98115.14;1678181;85;21004;-72
2022/09/16 00:47:41;;;;;;;5.50;3.30;;;;;;;18.18;100.00;98126.91;1678341;85;21927;-74
2022/09/16 00:50:31;;;;;;;4.55;3.17;;;;;;;18.20;100.00;98128.66;1678418;85;21484;-74
2022/09/16 00:52:58;;;;;;;4.55;3.00;;;;;;;18.20;100.00;98128.66;1678269;85;21009;-67
2022/09/16 00:55:27;;;;;;;3.72;3.10;;;;;;;18.20;100.00;98125.09;1678141;85;20992;-65
2022/09/16 00:57:54;;;;;;;5.60;3.47;;;;;;;18.18;100.00;98127.49;1678303;85;21565;-69
2022/09/16 01:00:21;;;;;;;11.15;3.40;;;;;;;18.15;100.00;98143.02;1678286;85;21124;-68
2022/09/16 01:02:49;;;;;;;4.92;3.50;;;;;;;18.15;100.00;98143.64;1678163;84;20924;-71
2022/09/16 01:05:19;;;;;;;6.08;3.17;;;;;;;18.17;100.00;98146.81;1678200;84;20976;-67
2022/09/16 01:07:50;;;;;;;3.83;3.30;;;;;;;18.13;100.00;98145.44;1659384;85;20949;-67
2022/09/16 01:10:21;;;;;;;4.67;3.60;;;;;;;18.11;100.00;98150.00;1678491;85;21560;-72
2022/09/16 01:12:53;;;;;;;9.50;3.98;;;;;;;18.06;100.00;98143.45;1678266;85;21156;-65
2022/09/16 01:15:19;;;;;;;4.20;3.47;;;;;;;18.03;100.00;98145.66;1678114;84;20925;-66
2022/09/16 01:17:57;;;;;;;4.65;3.47;;;;;;;18.03;100.00;98154.02;1678180;85;20941;-67
2022/09/16 01:20:57;;;;;;;6.97;3.77;;;;;;;18.05;100.00;98151.59;1678422;85;20862;-70
2022/09/16 01:23:59;;;;;;;6.25;4.58;;;;;;;18.09;100.00;98146.81;1678351;85;20985;-72
2022/09/16 01:27:04;;;;;;;6.15;4.08;;;;;;;18.07;100.00;98151.19;1678157;85;21106;-70
2022/09/16 01:30:04;;;;;;;7.70;4.22;;;;;;;18.04;100.00;98150.61;1678304;84;20941;-72
2022/09/16 01:32:45;;;;;;;6.42;4.53;;;;;;;18.01;100.00;98159.97;1696548;83;20961;-74
2022/09/16 01:35:23;;;;;;;6.37;4.50;;;;;;;18.00;100.00;98156.99;1678563;84;20969;-73
2022/09/16 01:38:16;;;;;;;5.40;3.92;;;;;;;17.97;100.00;98149.45;1678093;85;20976;-72
2022/09/16 01:41:14;;;;;;;8.78;4.72;;;;;;;17.94;100.00;98152.25;1678121;85;21136;-73
2022/09/16 01:43:55;;;;;;;7.08;4.42;;;;;;;17.93;100.00;98161.19;1678119;85;21410;-63
2022/09/16 01:46:47;;;;;;;8.28;4.97;;;;;;;17.92;100.00;98174.94;1678059;85;21048;-73
2022/09/16 01:49:40;;;;;;;5.67;4.53;;;;;;;17.91;100.00;98167.79;1677582;85;20953;-73
2022/09/16 01:52:53;;;;;;;4.30;3.90;;;;;;;17.89;100.00;98167.39;1677611;85;20932;-64
2022/09/16 01:55:31;;;;;;;5.75;3.92;;;;;;;17.87;100.00;98168.39;1675701;85;21117;-73
2022/09/16 01:58:11;;;;;;;5.28;4.58;;;;;;;17.81;100.00;98181.15;1677439;85;21000;-72
2022/09/16 02:00:40;;;;;;;6.28;4.47;;;;;;;17.78;100.00;98173.57;1678166;85;20912;-67
2022/09/16 02:03:12;;;;;;;4.40;3.95;;;;;;;17.77;100.00;98167.23;1678215;85;21438;-68
2022/09/16 02:05:55;;;;;;;3.90;3.58;;;;;;;17.94;100.00;98156.42;1678002;85;20933;-73
2022/09/16 02:08:27;;;;;;;4.95;4.25;;;;;;;17.76;100.00;98162.24;1681759;85;21172;-69
2022/09/16 02:10:58;;;;;;;4.62;4.22;;;;;;;17.72;100.00;98167.05;1677890;85;20988;-66
2022/09/16 02:13:38;;;;;;;5.03;4.28;;;;;;;17.70;100.00;98168.04;1678371;85;20854;-72
2022/09/16 02:16:13;;;;;;;5.22;4.50;;;;;;;17.72;100.00;98171.81;1678137;84;20862;-73
2022/09/16 02:18:41;;;;;;;4.08;3.65;;;;;;;17.72;100.00;98175.41;1677419;85;20981;-71
2022/09/16 02:21:10;;;;;;;4.80;3.98;;;;;;;17.72;100.00;98169.03;1678149;85;21312;-72
2022/09/16 02:23:40;;;;;;;8.28;4.87;;;;;;;17.71;100.00;98159.87;1678281;85;21513;-73
2022/09/16 02:26:09;;;;;;;4.58;3.92;;;;;;;17.75;100.00;98169.61;1681755;85;21504;-69
2022/09/16 02:28:38;;;;;;;5.35;4.37;;;;;;;17.75;100.00;98171.00;1678064;85;20933;-68
2022/09/16 02:31:10;;;;;;;11.83;4.65;;;;;;;17.78;100.00;98172.98;1678146;84;21053;-70
2022/09/16 02:33:55;;;;;;;6.00;4.92;;;;;;;17.77;100.00;98172.80;1678211;84;21489;-72
2022/09/16 02:36:22;;;;;;;6.08;4.58;;;;;;;17.73;100.00;98173.39;1678642;85;21409;-70
2022/09/16 02:38:53;;;;;;;6.75;4.50;;;;;;;17.77;100.00;98171.41;1678140;85;20949;-70
2022/09/16 02:41:20;;;;;;;6.10;4.15;;;;;;;17.70;100.00;98177.79;1668671;85;21033;-71
2022/09/16 02:43:46;;;;;;;5.58;4.45;;;;;;;17.71;100.00;98184.12;1678107;85;21035;-68
2022/09/16 02:46:27;;;;;;;5.22;4.58;;;;;;;17.72;100.00;98182.95;1646765;85;21141;-67
2022/09/16 02:49:12;;;;;;;6.17;4.65;;;;;;;17.72;100.00;98189.33;1678088;85;21032;-71
2022/09/16 02:51:47;;;;;;;6.17;4.65;;;;;;;17.74;100.00;98179.95;1678146;85;20928;-72
2022/09/16 02:54:46;;;;;;;10.88;4.70;;;;;;;17.73;100.00;98177.56;1677764;85;21004;-73
2022/09/16 02:57:13;;;;;;;6.95;4.58;;;;;;;17.68;100.00;98164.05;1677338;85;21348;-72
2022/09/16 02:59:40;;;;;;;4.60;3.72;;;;;;;17.70;100.00;98169.43;1678237;85;21058;-72
2022/09/16 03:02:06;;;;;;;7.00;4.80;;;;;;;17.72;100.00;98160.67;1658976;85;21024;-71
2022/09/16 03:04:33;;;;;;;5.97;4.67;;;;;;;17.68;100.00;98164.86;1678021;85;20850;-71
2022/09/16 03:07:00;;;;;;;8.53;4.55;;;;;;;17.68;100.00;98169.63;1678130;84;20968;-73
2022/09/16 03:09:28;;;;;;;5.85;4.70;;;;;;;17.68;100.00;98171.81;1651037;85;21037;-67
2022/09/16 03:12:06;;;;;;;5.70;4.10;;;;;;;17.71;100.00;98177.97;1678416;85;21478;-69
2022/09/16 03:15:33;;;;;;;5.53;4.35;;;;;;;17.72;100.00;98181.56;1677993;85;20981;-73
2022/09/16 03:18:26;;;;;;;6.70;4.05;;;;;;;17.72;100.00;98182.95;1678447;84;21504;-72
2022/09/16 03:21:24;;;;;;;12.90;4.65;;;;;;;17.54;100.00;98188.56;1678185;85;20988;-72
2022/09/16 03:24:15;;;;;;;6.08;5.12;;;;;;;17.68;100.00;98187.13;1678098;85;20973;-72
2022/09/16 03:27:12;;;;;;;5.47;4.50;;;;;;;17.67;100.00;98185.56;1678043;84;21218;-68
2022/09/16 03:29:55;;;;;;;6.70;4.05;;;;;;;17.72;100.00;98183.76;1672171;85;20932;-63
2022/09/16 03:32:26;;;;;;;5.35;3.90;;;;;;;17.69;100.00;98183.14;1678830;85;20973;-71
2022/09/16 03:35:05;;;;;;;12.20;4.40;;;;;;;17.66;100.00;98181.16;1678262;85;21003;-72
2022/09/16 03:37:35;;;;;;;7.80;4.30;;;;;;;17.59;100.00;98167.25;1678299;85;21080;-71
2022/09/16 03:40:11;;;;;;;8.90;4.22;;;;;;;17.58;100.00;98164.28;1678116;85;21151;-72
2022/09/16 03:42:41;;;;;;;7.25;4.25;;;;;;;17.51;100.00;98165.89;1678309;85;20936;-71
2022/09/16 03:45:14;;;;;;;13.95;4.67;;;;;;;17.54;100.00;98167.69;1678182;85;20989;-72
2022/09/16 03:47:43;;;;;;;7.47;4.35;;;;;;;17.55;100.00;98174.83;1678262;85;20893;-71
2022/09/16 03:50:10;;;;;;;8.25;4.55;;;;;;;17.59;100.00;98185.34;1678137;85;20980;-66
2022/09/16 03:52:37;;;;;;;9.65;5.08;;;;;;;17.61;100.00;98184.36;1678285;85;21155;-69
2022/09/16 03:55:06;;;;;;;7.37;5.35;;;;;;;17.66;100.00;98190.91;1678236;85;20961;-70
2022/09/16 03:57:33;;;;;;;5.72;5.12;;;;;;;17.76;100.00;98178.95;1678459;84;20857;-70
2022/09/16 04:00:00;;;;;;;6.03;4.55;;;;;;;17.77;100.00;98179.77;1678194;84;20968;-72
2022/09/16 04:02:27;;;;;;;11.28;4.75;;;;;;;17.65;100.00;98189.34;1678345;85;21064;-70
2022/09/16 04:04:53;;;;;;;7.53;4.53;;;;;;;17.62;100.00;98189.52;1678155;85;21143;-71
2022/09/16 04:07:19;;;;;;;11.38;4.83;;;;;;;17.62;100.00;98184.57;1678164;85;21013;-72
2022/09/16 04:09:47;;;;;;;6.35;4.53;;;;;;;17.62;100.00;98180.39;1678221;84;21076;-70
2022/09/16 04:12:14;;;;;;;7.30;4.83;;;;;;;17.61;100.00;98192.13;1678142;85;21474;-72
2022/09/16 04:14:41;;;;;;;5.12;4.62;;;;;;;17.59;100.00;98202.05;1678340;85;21397;-65
2022/09/16 04:17:07;;;;;;;13.78;5.15;;;;;;;17.55;100.00;98203.48;1678319;84;21154;-68
2022/09/16 04:19:34;;;;;;;9.18;5.22;;;;;;;17.61;100.00;98205.23;1678106;84;21007;-69
2022/09/16 04:22:01;;;;;;;7.15;4.75;;;;;;;17.52;100.00;98209.82;1678585;85;20921;-71
2022/09/16 04:24:27;;;;;;;5.60;4.75;;;;;;;17.51;100.00;98207.66;1678083;85;21013;-72
2022/09/16 04:26:55;;;;;;;6.50;4.50;;;;;;;17.50;100.00;98202.48;1678076;85;21016;-72
2022/09/16 04:29:22;;;;;;;6.47;5.10;;;;;;;17.50;100.00;98194.13;1678351;85;21116;-72
2022/09/16 04:31:51;;;;;;;8.03;5.58;;;;;;;17.55;100.00;98196.52;1678110;85;20972;-66
2022/09/16 04:34:22;;;;;;;9.08;5.60;;;;;;;17.56;100.00;98207.84;1678497;85;21505;-70
2022/09/16 04:36:48;;;;;;;6.08;4.87;;;;;;;17.49;100.00;98218.39;1678310;84;21013;-72
2022/09/16 04:39:15;;;;;;;7.58;4.92;;;;;;;17.54;100.00;98213.62;1678273;85;21401;-70
2022/09/16 04:41:41;;;;;;;11.25;5.10;;;;;;;17.52;100.00;98212.02;1678356;85;21442;-72
2022/09/16 04:44:09;;;;;;;5.40;4.90;;;;;;;17.51;100.00;98205.45;1678007;85;21000;-71
2022/09/16 04:46:35;;;;;;;7.05;4.78;;;;;;;17.49;100.00;98204.47;1678146;85;21000;-70
2022/09/16 04:49:02;;;;;;;6.20;4.47;;;;;;;17.45;100.00;98202.89;1678247;84;20984;-71
2022/09/16 04:51:30;;;;;;;6.55;4.42;;;;;;;17.42;100.00;98216.99;1678183;85;20980;-72
2022/09/16 04:53:58;;;;;;;6.90;5.50;;;;;;;17.42;100.00;98212.05;1678204;84;21529;-70
2022/09/16 04:56:27;;;;;;;6.12;4.62;;;;;;;17.44;100.00;98222.16;1678068;85;21527;-70
2022/09/16 04:58:56;;;;;;;8.78;5.17;;;;;;;17.46;100.00;98235.89;1678215;85;20997;-69
2022/09/16 05:01:26;;;;;;;9.10;4.80;;;;;;;17.46;100.00;98247.03;1678105;85;20885;-71
2022/09/16 05:03:54;;;;;;;6.58;5.10;;;;;;;17.48;100.00;98243.26;1678202;85;21044;-70
2022/09/16 05:06:25;;;;;;;6.80;5.00;;;;;;;17.48;100.00;98246.05;1678223;85;21121;-71
2022/09/16 05:08:52;;;;;;;12.88;5.78;;;;;;;17.47;100.00;98244.44;1678086;85;20980;-69
2022/09/16 05:11:25;;;;;;;5.83;4.50;;;;;;;17.47;100.00;98239.48;1678188;85;21036;-71
2022/09/16 05:13:52;;;;;;;5.20;4.55;;;;;;;17.52;100.00;98240.45;1678353;85;21475;-70
2022/09/16 05:16:22;;;;;;;9.50;5.40;;;;;;;17.55;100.00;98248.03;1678405;85;21001;-71
2022/09/16 05:18:52;;;;;;;6.20;5.25;;;;;;;17.55;100.00;98246.64;1646891;85;21283;-71
2022/09/16 05:21:20;;;;;;;4.40;4.00;;;;;;;17.56;100.00;98245.43;1678066;85;21005;-65
2022/09/16 05:23:46;;;;;;;11.40;4.75;;;;;;;17.56;100.00;98249.61;1678238;85;21532;-70
2022/09/16 05:26:21;;;;;;;7.70;5.35;;;;;;;17.58;100.00;98248.62;1678360;85;20937;-68
2022/09/16 05:28:49;;;;;;;7.45;4.95;;;;;;;17.60;100.00;98250.41;1678110;85;21044;-70
2022/09/16 05:31:25;;;;;;;7.47;4.72;;;;;;;17.63;100.00;98260.75;1678169;85;21230;-71
2022/09/16 05:34:00;;;;;;;7.78;5.25;;;;;;;17.67;100.00;98264.92;1678385;85;20984;-64
2022/09/16 05:36:30;;;;;;;7.55;5.30;;;;;;;17.72;100.00;98258.95;1678167;85;20968;-67
2022/09/16 05:38:57;;;;;;;9.15;4.90;;;;;;;17.72;100.00;98260.34;1678269;85;20944;-64
2022/09/16 05:41:24;;;;;;;6.45;4.53;;;;;;;17.72;100.00;98259.55;1678298;85;21004;-71
2022/09/16 05:43:51;;;;;;;7.67;4.65;;;;;;;17.72;100.00;98264.52;1678088;85;21189;-71
2022/09/16 05:46:20;;;;;;;9.10;4.37;;;;;;;17.72;100.00;98263.13;1678187;85;21012;-69
2022/09/16 05:48:47;;;;;;;6.05;4.55;;;;;;;17.76;100.00;98263.11;1678254;85;20972;-70
2022/09/16 05:51:20;;;;;;;9.08;4.80;;;;;;;17.80;100.00;98264.50;1678061;85;20901;-70
2022/09/16 05:53:48;;;;;;;5.28;4.22;;;;;;;17.82;100.00;98255.95;1678267;85;21084;-71
2022/09/16 05:56:21;;;;;;;5.40;4.87;;;;;;;17.85;100.00;98257.13;1678238;84;21163;-70
2022/09/16 05:58:47;;;;;;;8.65;4.80;;;;;;;17.85;100.00;98266.88;1678282;85;20881;-68
2022/09/16 06:01:19;;;;;;;5.47;4.65;;;;;;;17.87;100.00;98268.09;1678166;85;20854;-67
2022/09/16 06:03:48;;;;;;;7.33;4.92;;;;;;;17.91;100.00;98274.25;1678382;84;21048;-69
2022/09/16 06:06:25;;;;;;;9.45;5.25;;;;;;;17.90;100.00;98273.44;1678076;85;20842;-69
2022/09/16 06:08:54;;;;;;;8.45;5.53;;;;;;;17.93;100.00;98266.28;1678139;85;21493;-70
2022/09/16 06:11:23;;;;;;;6.67;5.75;;;;;;;17.93;100.00;98267.06;1678091;84;20917;-67
2022/09/16 06:13:57;;;;;;;5.80;5.22;;;;;;;17.94;100.00;98264.48;1678074;85;20932;-65
2022/09/16 06:16:24;;;;;;;8.53;5.42;;;;;;;17.94;100.00;98263.09;1678111;84;20993;-66
2022/09/16 06:18:54;;;;;;;7.42;5.67;;;;;;;17.99;100.00;98261.30;1678400;85;20952;-67
2022/09/16 06:21:21;;;;;;;6.80;6.10;;;;;;;18.03;100.00;98268.84;1678089;85;21150;-65
2022/09/16 06:23:49;;;;;;;9.53;6.55;;;;;;;18.05;100.00;98277.61;1678120;85;21534;-62
2022/09/16 06:26:20;;;;;;;7.80;6.10;;;;;;;18.07;100.00;98270.42;1678203;84;21035;-64
2022/09/16 06:28:48;;;;;;;7.03;6.33;;;;;;;18.18;100.00;98273.23;1678325;85;21557;-67
2022/09/16 06:31:19;;;;;;;8.33;5.95;;;;;;;18.16;100.00;98277.01;1678355;85;21446;-63
2022/09/16 06:33:46;;;;;;;8.33;7.22;;;;;;;18.22;100.00;98279.56;1678234;85;21147;-68
2022/09/16 06:36:16;;;;;;;7.47;6.40;;;;;;;18.25;100.00;98280.16;1677995;85;20942;-68
2022/09/16 06:38:44;;;;;;;8.65;7.03;;;;;;;18.30;100.00;98283.15;1678138;85;20878;-67
2022/09/16 06:41:11;;;;;;;9.05;7.42;;;;;;;18.31;100.00;98280.55;1678103;85;21044;-64
2022/09/16 06:43:38;;;;;;;9.10;7.10;;;;;;;18.39;100.00;98291.06;1678063;85;21083;-69
2022/09/16 06:46:12;;;;;;;10.90;7.37;;;;;;;18.46;100.00;98286.86;1678066;85;21087;-68
2022/09/16 06:48:39;;;;;;;10.08;6.70;;;;;;;18.56;100.00;98289.41;1678074;85;20929;-65
2022/09/16 06:51:09;;;;;;;9.85;7.30;;;;;;;18.66;100.00;98289.78;1678101;85;20969;-69
2022/09/16 06:53:36;;;;;;;12.33;8.25;;;;;;;18.76;100.00;98293.72;1678203;85;21568;-69
2022/09/16 06:56:09;;;;;;;8.50;7.53;;;;;;;18.80;100.00;98295.91;1678071;85;20937;-66
2022/09/16 06:58:36;;;;;;;8.45;6.85;;;;;;;18.84;100.00;98298.86;1678217;85;21474;-69
2022/09/16 07:01:10;;;;;;;7.90;7.10;;;;;;;18.78;100.00;98300.47;1678217;84;21406;-68
2022/09/16 07:03:37;;;;;;;;;;;;;;;18.76;100.00;98308.47;1680929;85;21615;-71
2022/09/16 07:06:05;;;;;;;10.35;7.72;;;;;;;18.75;100.00;98308.87;1677900;85;20146;-71
2022/09/16 07:08:33;;;;;;;11.78;7.35;;;;;;;18.75;100.00;98320.03;1678199;85;20921;-70
2022/09/16 07:11:14;;;;;;;13.60;6.70;;;;;;;18.74;100.00;98313.65;1681646;85;21137;-71
2022/09/16 07:13:41;;;;;;;8.58;6.70;;;;;;;18.80;100.00;98316.83;1678015;85;21022;-70
2022/09/16 07:16:11;;;;;;;13.88;8.68;;;;;;;18.88;100.00;98315.59;1678102;85;21040;-66
2022/09/16 07:18:37;;;;;;;10.82;7.15;;;;;;;18.96;100.00;98319.92;1678024;84;20936;-65
2022/09/16 07:21:07;;;;;;;8.83;7.55;;;;;;;18.95;100.00;98324.52;1678213;84;21000;-69
2022/09/16 07:23:35;;;;;;;13.00;7.25;;;;;;;19.00;100.00;98338.64;1678152;85;21482;-66
2022/09/16 07:26:09;;;;;;;12.15;7.35;;;;;;;19.05;100.00;98332.05;1678216;85;20996;-71
2022/09/16 07:28:36;;;;;;;9.38;7.12;;;;;;;19.11;100.00;98331.03;1675633;85;21551;-65
2022/09/16 07:31:07;;;;;;;8.78;6.40;;;;;;;19.17;100.00;98328.61;1678360;85;20861;-70
2022/09/16 07:33:39;;;;;;;9.55;6.60;;;;;;;19.26;100.00;98323.36;1678274;84;20886;-72
2022/09/16 07:36:07;;;;;;;9.83;6.62;;;;;;;19.36;100.00;98320.33;1678170;84;21132;-67
2022/09/16 07:38:34;;;;;;;8.85;6.00;;;;;;;19.48;100.00;98317.66;1678509;85;20941;-70
2022/09/16 07:41:20;;;;;;;7.10;6.20;;;;;;;19.56;100.00;98308.60;1678205;85;21037;-69
2022/09/16 07:43:47;;;;;;;10.05;5.97;;;;;;;19.70;100.00;98312.66;1678147;85;21052;-70
2022/09/16 07:46:16;;;;;;;11.65;7.42;;;;;;;19.92;100.00;98304.11;1678149;85;21488;-69
2022/09/16 07:48:44;;;;;;;8.95;6.20;;;;;;;20.03;100.00;98304.59;1678131;85;21442;-68
2022/09/16 07:51:16;;;;;;;7.85;5.83;;;;;;;19.97;100.00;98311.25;1678362;85;21544;-70
2022/09/16 07:53:42;;;;;;;7.15;5.62;;;;;;;19.99;100.00;98317.23;1678161;85;20949;-72
2022/09/16 07:56:15;;;;;;;9.30;5.33;;;;;;;20.04;100.00;98316.01;1678228;85;21001;-68
2022/09/16 07:58:44;;;;;;;8.07;4.83;;;;;;;20.06;100.00;98316.39;1678438;85;20996;-72
2022/09/16 08:01:16;;;;;;;7.00;5.55;;;;;;;20.08;100.00;98316.75;1678564;85;21098;-71
2022/09/16 08:03:44;;;;;;;8.58;4.67;;;;;;;20.09;100.00;98311.96;1678122;84;20889;-72
2022/09/16 08:06:15;;;;;;;8.23;4.47;;;;;;;20.08;100.00;98306.97;1678185;85;20975;-70
2022/09/16 08:08:43;;;;;;;12.83;4.77;;;;;;;20.10;100.00;98307.95;1678424;85;20901;-70
2022/09/16 08:11:11;;;;;;;5.70;4.50;;;;;;;20.13;100.00;98309.94;1678326;85;20926;-67
2022/09/16 08:13:41;;;;;;;5.37;4.70;;;;;;;20.15;100.00;98305.50;1678144;84;21517;-70
2022/09/16 08:16:11;;;;;;;9.25;4.20;;;;;;;20.21;100.00;98294.67;1678175;85;21540;-67
2022/09/16 08:18:38;;;;;;;5.92;4.25;;;;;;;20.27;100.00;98290.20;1678324;85;20996;-72
2022/09/16 08:21:10;;;;;;;6.67;4.65;;;;;;;20.43;100.00;98298.03;1678147;85;20893;-70
2022/09/16 08:23:38;;;;;;;10.60;5.35;;;;;;;20.63;100.00;98300.18;1678328;84;21005;-70
2022/09/16 08:26:08;;;;;;;9.33;4.20;;;;;;;20.85;100.00;98295.70;1678216;84;21127;-71
2022/09/16 08:28:41;;;;;;;7.10;4.45;;;;;;;20.96;100.00;98287.20;1678071;85;20925;-70
2022/09/16 08:31:08;;;;;;;;;;;;;;;20.99;100.00;98279.95;1680959;85;20917;-72
2022/09/16 08:33:40;;;;;;;10.28;4.53;;;;;;;21.00;100.00;98278.76;1678203;85;20371;-70
2022/09/16 08:36:18;;;;;;;6.92;3.80;;;;;;;21.03;100.00;98292.67;1659967;85;21532;-72
2022/09/16 08:38:49;;;;;;;7.95;3.85;;;;;;;21.08;100.00;98280.83;1678162;85;21168;-69
2022/09/16 08:41:49;;;;;;;9.38;4.12;;;;;;;21.17;100.00;98279.71;1678483;85;20877;-67
2022/09/16 08:44:30;;;;;;;8.53;3.87;;;;;;;21.31;100.00;98275.88;1678185;85;20913;-68
2022/09/16 08:47:26;;;;;;;6.37;3.60;;;;;;;21.45;100.00;98276.87;1678246;85;20956;-65
2022/09/16 08:49:53;;;;;;;7.78;3.87;;;;;;;21.53;100.00;98267.12;1678260;85;21052;-71
2022/09/16 08:52:30;;;;;;;4.60;3.55;;;;;;;21.63;100.00;98267.55;1678502;85;21304;-66
2022/09/16 08:55:08;;;;;;;9.43;3.87;;;;;;;21.74;100.00;98271.59;1678237;85;20932;-67
2022/09/16 08:57:40;;;;;;;5.72;3.33;;;;;;;21.85;100.00;98274.21;1677539;85;20981;-67
2022/09/16 09:00:13;;;;;;;12.07;3.98;;;;;;;21.95;100.00;98273.06;1678267;84;20972;-68
2022/09/16 09:03:02;;;;;;;4.75;3.45;;;;;;;22.02;100.00;98263.13;1678531;85;21497;-72
2022/09/16 09:05:53;;;;;;;5.85;3.45;;;;;;;22.11;100.00;98256.92;1678289;84;21126;-64
2022/09/16 09:08:53;;;;;;;6.85;3.10;;;;;;;22.22;100.00;98266.55;1678202;84;21477;-70
2022/09/16 09:11:28;;;;;;;4.75;3.02;;;;;;;22.30;100.00;98258.77;1678022;85;20978;-67
2022/09/16 09:14:05;;;;;;;6.25;3.30;;;;;;;22.35;100.00;98257.67;1678094;85;21485;-70
2022/09/16 09:16:52;;;;;;;7.22;3.20;;;;;;;22.35;100.00;98260.47;1678173;85;20952;-69
2022/09/16 09:19:49;;;;;;;5.60;2.92;;;;;;;22.37;100.00;98252.42;1678418;85;21092;-71
2022/09/16 09:23:05;;;;;;;6.40;2.98;;;;;;;22.34;100.00;98242.67;1678160;85;20933;-71
2022/09/16 09:25:58;;;;;;;9.55;3.02;;;;;;;22.39;100.00;98254.80;1678248;85;20885;-68
2022/09/16 09:28:33;;;;;;;6.35;2.90;;;;;;;22.51;100.00;98254.75;1676883;85;21402;-73
2022/09/16 09:31:11;;;;;;;6.15;2.83;;;;;;;22.59;100.00;98253.38;1677486;85;21505;-71
2022/09/16 09:33:50;;;;;;;4.78;2.77;;;;;;;22.72;100.00;98248.54;1678181;85;22118;-69
2022/09/16 09:36:41;;;;;;;7.17;2.92;;;;;;;22.91;100.00;98246.89;1678294;85;21038;-70
2022/09/16 09:39:42;;;;;;;6.35;2.95;;;;;;;23.02;100.00;98235.43;1678234;85;20933;-71
2022/09/16 09:42:20;;;;;;;5.22;2.60;;;;;;;23.09;100.00;98235.27;1678361;85;20984;-67
2022/09/16 09:45:25;;;;;;;5.33;3.22;;;;;;;23.17;100.00;98235.08;1678156;85;21584;-70
2022/09/16 09:48:22;;;;;;;9.13;3.20;;;;;;;23.27;100.00;98242.46;1678148;85;22114;-71
2022/09/16 09:50:52;;;;;;;6.87;3.35;;;;;;;23.39;100.00;98240.20;1678137;85;20936;-71
2022/09/16 09:53:42;;;;;;;6.08;2.77;;;;;;;23.47;100.00;98237.41;1678345;85;21004;-71
2022/09/16 09:56:23;;;;;;;3.45;2.27;;;;;;;23.58;100.00;98240.73;1678192;85;21565;-67
2022/09/16 09:59:15;;;;;;;5.15;2.85;;;;;;;23.65;100.00;98245.98;1678478;85;20960;-70
2022/09/16 10:01:43;;;;;;;7.72;2.90;;;;;;;23.58;100.00;98246.36;1678318;84;20913;-71
2022/09/16 10:04:14;;;;;;;4.85;2.72;;;;;;;23.53;100.00;98246.08;1678074;85;21017;-68
2022/09/16 10:06:44;;;;;;;4.42;3.05;;;;;;;23.39;100.00;98247.22;1678088;85;20858;-72
2022/09/16 10:09:14;;;;;;;7.47;3.08;;;;;;;23.46;100.00;98245.65;1678173;85;21469;-70
2022/09/16 10:11:56;;;;;;;4.03;2.80;;;;;;;23.37;100.00;98249.06;1678142;85;20929;-69
2022/09/16 10:14:34;;;;;;;7.33;2.67;;;;;;;23.30;100.00;98245.79;1678077;84;21191;-69
2022/09/16 10:17:06;;;;;;;6.05;3.12;;;;;;;23.12;100.00;98245.42;1678344;84;21025;-70
2022/09/16 10:19:41;;;;;;;5.03;2.75;;;;;;;23.03;100.00;98251.04;1677801;85;20877;-71
2022/09/16 10:22:13;;;;;;;5.58;2.90;;;;;;;22.90;100.00;98250.14;1677474;85;21037;-68
2022/09/16 10:24:42;;;;;;;7.87;3.27;;;;;;;22.84;100.00;98257.67;1678260;85;21048;-69
2022/09/16 10:27:33;;;;;;;9.15;2.75;;;;;;;22.81;100.00;98263.39;1678340;85;21823;-72
2022/09/16 10:30:08;;;;;;;8.40;3.33;;;;;;;22.80;100.00;98264.00;1677942;85;37350;-71
2022/09/16 10:32:59;;;;;;;6.75;3.22;;;;;;;22.80;100.00;98267.41;1677128;85;20933;-69
2022/09/16 10:35:33;;;;;;;7.05;3.20;;;;;;;22.81;100.00;98267.60;1678160;85;21450;-70
2022/09/16 10:38:18;;;;;;;6.62;2.85;;;;;;;22.91;100.00;98265.14;1678353;85;20964;-70
2022/09/16 10:41:15;;;;;;;6.83;3.25;;;;;;;23.08;100.00;98265.97;1678093;85;21423;-66
2022/09/16 10:44:02;;;;;;;5.40;2.85;;;;;;;23.27;100.00;98250.12;1678517;85;20881;-66
2022/09/16 10:46:29;;;;;;;5.83;3.12;;;;;;;23.33;100.00;98256.78;1677952;85;21020;-69
2022/09/16 10:49:09;;;;;;;5.62;3.05;;;;;;;23.33;100.00;98262.40;1678057;84;20977;-66
2022/09/16 10:51:37;;;;;;;8.70;3.15;;;;;;;23.26;100.00;98257.74;1678148;85;20917;-68
2022/09/16 10:54:05;;;;;;;5.20;3.08;;;;;;;23.10;100.00;98264.92;1678087;85;21155;-70
2022/09/16 10:56:34;;;;;;;12.82;3.08;;;;;;;23.01;100.00;98266.16;1678056;85;20878;-69
2022/09/16 10:59:10;;;;;;;5.37;3.02;;;;;;;23.09;100.00;98256.33;1681713;84;20989;-69
2022/09/16 11:02:02;;;;;;;6.62;3.10;;;;;;;23.26;100.00;98248.52;1678258;85;20969;-68
2022/09/16 11:04:54;;;;;;;7.20;3.58;;;;;;;23.42;100.00;98247.77;1678310;85;21008;-73
2022/09/16 11:07:41;;;;;;;8.10;3.37;;;;;;;23.42;100.00;98240.11;1678322;85;21155;-72
2022/09/16 11:10:38;;;;;;;5.95;2.77;;;;;;;23.62;100.00;98253.30;1677938;85;20901;-63
2022/09/16 11:13:28;;;;;;;5.10;2.87;;;;;;;23.63;100.00;98249.88;1677461;85;21004;-71
2022/09/16 11:16:20;;;;;;;14.10;2.95;;;;;;;23.56;100.00;98248.04;1678307;84;20924;-68
2022/09/16 11:19:03;;;;;;;6.50;2.90;;;;;;;23.55;100.00;98249.25;1678601;84;20913;-70
2022/09/16 11:22:14;;;;;;;5.55;3.10;;;;;;;23.47;100.00;98250.05;1678257;85;21771;-69
2022/09/16 11:25:01;;;;;;;7.40;3.05;;;;;;;23.39;100.00;98255.02;1678342;85;21481;-66
2022/09/16 11:27:54;;;;;;;5.80;2.98;;;;;;;23.26;100.00;98260.55;1677457;85;21044;-68
2022/09/16 11:30:21;;;;;;;6.17;2.62;;;;;;;23.21;100.00;98255.45;1678499;85;21534;-70
2022/09/16 11:33:16;;;;;;;6.30;2.90;;;;;;;23.15;100.00;98262.84;1678342;85;21540;-72
2022/09/16 11:36:07;;;;;;;5.05;3.37;;;;;;;23.05;100.00;98271.05;1678337;85;21166;-71
2022/09/16 11:38:59;;;;;;;4.22;3.33;;;;;;;23.03;100.00;98258.06;1698578;83;20993;-66
2022/09/16 11:41:39;;;;;;;8.28;2.67;;;;;;;23.07;100.00;98262.99;1678559;84;21087;-73
2022/09/16 11:44:27;;;;;;;5.08;2.90;;;;;;;23.07;100.00;98262.99;1678338;85;21061;-72
2022/09/16 11:47:19;;;;;;;6.83;2.90;;;;;;;23.05;100.00;98258.42;1678386;85;20992;-73
2022/09/16 11:50:19;;;;;;;8.05;3.30;;;;;;;23.03;100.00;98262.27;1678322;84;21415;-67
2022/09/16 11:53:40;;;;;;;3.87;2.40;;;;;;;22.95;100.00;98266.47;1678151;85;20889;-68
2022/09/16 11:56:27;;;;;;;5.78;2.80;;;;;;;22.80;100.00;98266.80;1678120;85;21028;-66
2022/09/16 11:58:58;;;;;;;8.55;3.70;;;;;;;22.82;100.00;98267.16;1678517;85;21094;-70
2022/09/16 12:01:41;;;;;;;3.47;2.60;;;;;;;22.80;100.00;98272.42;1678385;85;21020;-72